sensor_id;sensor_type;location;lat;lon;timestamp;pressure;altitude;pressure_sealevel;temperature;humidity
79221;BME280;68648;52.114;5.424;2023-05-07T00:01:44;101738.19;;;13.08;89.13
79221;BME280;68648;52.114;5.424;2023-05-07T00:04:14;101734.25;;;13.02;89.03
79221;BME280;68648;52.114;5.424;2023-05-07T00:06:40;101743.06;;;13.03;89.24
79221;BME280;68648;52.114;5.424;2023-05-07T00:09:07;101747.13;;;13.07;89.42
79221;BME280;68648;52.114;5.424;2023-05-07T00:11:34;101750.38;;;13.10;89.67
79221;BME280;68648;52.114;5.424;2023-05-07T00:14:02;101739.63;;;13.12;89.43
79221;BME280;68648;52.114;5.424;2023-05-07T00:16:29;101747.38;;;13.15;89.77
79221;BME280;68648;52.114;5.424;2023-05-07T00:18:56;101747.38;;;13.15;89.36
79221;BME280;68648;52.114;5.424;2023-05-07T00:21:22;101746.38;;;13.16;89.34
79221;BME280;68648;52.114;5.424;2023-05-07T00:23:53;101744.72;;;13.15;89.59
79221;BME280;68648;52.114;5.424;2023-05-07T00:26:20;101747.38;;;13.15;89.57
79221;BME280;68648;52.114;5.424;2023-05-07T00:28:47;101736.84;;;13.13;89.48
79221;BME280;68648;52.114;5.424;2023-05-07T00:31:13;101738.78;;;13.11;89.43
79221;BME280;68648;52.114;5.424;2023-05-07T00:33:40;101730.47;;;13.05;89.34
79221;BME280;68648;52.114;5.424;2023-05-07T00:36:06;101733.69;;;12.99;89.43
79221;BME280;68648;52.114;5.424;2023-05-07T00:38:33;101727.09;;;12.93;89.39
79221;BME280;68648;52.114;5.424;2023-05-07T00:40:59;101725.66;;;12.89;89.36
79221;BME280;68648;52.114;5.424;2023-05-07T00:43:26;101726.03;;;12.84;89.65
79221;BME280;68648;52.114;5.424;2023-05-07T00:45:54;101729.50;;;12.75;89.34
79221;BME280;68648;52.114;5.424;2023-05-07T00:48:21;101721.06;;;12.70;89.34
79221;BME280;68648;52.114;5.424;2023-05-07T00:50:47;101715.88;;;12.69;89.21
79221;BME280;68648;52.114;5.424;2023-05-07T00:53:17;101715.03;;;12.68;89.08
79221;BME280;68648;52.114;5.424;2023-05-07T00:55:44;101716.16;;;12.66;89.06
79221;BME280;68648;52.114;5.424;2023-05-07T00:58:11;101721.47;;;12.66;89.32
79221;BME280;68648;52.114;5.424;2023-05-07T01:00:38;101719.66;;;12.66;89.19
79221;BME280;68648;52.114;5.424;2023-05-07T01:03:04;101710.69;;;12.67;89.39
79221;BME280;68648;52.114;5.424;2023-05-07T01:05:32;101711.41;;;12.69;89.37
79221;BME280;68648;52.114;5.424;2023-05-07T01:08:02;101710.56;;;12.69;89.28
79221;BME280;68648;52.114;5.424;2023-05-07T01:10:30;101712.50;;;12.67;89.32
79221;BME280;68648;52.114;5.424;2023-05-07T01:12:58;101715.16;;;12.67;89.41
79221;BME280;68648;52.114;5.424;2023-05-07T01:15:26;101709.72;;;12.68;89.44
79221;BME280;68648;52.114;5.424;2023-05-07T01:17:53;101714.66;;;12.73;89.55
79221;BME280;68648;52.114;5.424;2023-05-07T01:20:19;101715.38;;;12.75;89.54
79221;BME280;68648;52.114;5.424;2023-05-07T01:22:46;101709.09;;;12.76;89.50
79221;BME280;68648;52.114;5.424;2023-05-07T01:25:13;101717.06;;;12.76;89.58
79221;BME280;68648;52.114;5.424;2023-05-07T01:27:40;101715.38;;;12.75;89.21
79221;BME280;68648;52.114;5.424;2023-05-07T01:30:09;101714.41;;;12.76;89.33
79221;BME280;68648;52.114;5.424;2023-05-07T01:32:53;101719.59;;;12.77;89.18
79221;BME280;68648;52.114;5.424;2023-05-07T01:35:37;101718.34;;;12.81;89.33
79221;BME280;68648;52.114;5.424;2023-05-07T01:38:05;101722.53;;;12.84;89.38
79221;BME280;68648;52.114;5.424;2023-05-07T01:40:33;101712.63;;;12.86;89.36
79221;BME280;68648;52.114;5.424;2023-05-07T01:43:03;101716.00;;;12.88;89.33
79221;BME280;68648;52.114;5.424;2023-05-07T01:45:30;101709.72;;;12.89;89.31
79221;BME280;68648;52.114;5.424;2023-05-07T01:48:03;101712.13;;;12.92;89.33
79221;BME280;68648;52.114;5.424;2023-05-07T01:50:31;101715.47;;;12.94;89.48
79221;BME280;68648;52.114;5.424;2023-05-07T01:52:58;101721.50;;;12.96;89.64
79221;BME280;68648;52.114;5.424;2023-05-07T01:55:25;101707.69;;;13.02;89.33
79221;BME280;68648;52.114;5.424;2023-05-07T01:57:52;101717.06;;;13.06;89.18
79221;BME280;68648;52.114;5.424;2023-05-07T02:00:19;101716.22;;;13.06;89.28
79221;BME280;68648;52.114;5.424;2023-05-07T02:02:45;101712.72;;;13.05;89.14
79221;BME280;68648;52.114;5.424;2023-05-07T02:05:12;101716.34;;;13.04;89.24
79221;BME280;68648;52.114;5.424;2023-05-07T02:07:39;101710.91;;;13.06;89.38
79221;BME280;68648;52.114;5.424;2023-05-07T02:10:06;101715.25;;;13.07;89.08
79221;BME280;68648;52.114;5.424;2023-05-07T02:12:32;101719.84;;;13.05;89.18
79221;BME280;68648;52.114;5.424;2023-05-07T02:14:59;101717.31;;;13.03;88.67
79221;BME280;68648;52.114;5.424;2023-05-07T02:17:26;101720.81;;;13.04;88.84
79221;BME280;68648;52.114;5.424;2023-05-07T02:19:55;101716.50;;;13.03;88.66
79221;BME280;68648;52.114;5.424;2023-05-07T02:22:21;101708.09;;;12.98;88.56
79221;BME280;68648;52.114;5.424;2023-05-07T02:24:48;101714.38;;;12.96;88.70
79221;BME280;68648;52.114;5.424;2023-05-07T02:27:15;101706.53;;;12.95;88.92
79221;BME280;68648;52.114;5.424;2023-05-07T02:29:41;101715.34;;;12.95;88.55
79221;BME280;68648;52.114;5.424;2023-05-07T02:32:08;101714.50;;;12.95;89.12
79221;BME280;68648;52.114;5.424;2023-05-07T02:34:35;101714.38;;;12.96;88.94
79221;BME280;68648;52.114;5.424;2023-05-07T02:37:01;101715.78;;;13.01;89.21
79221;BME280;68648;52.114;5.424;2023-05-07T02:39:28;101710.19;;;13.04;89.17
79221;BME280;68648;52.114;5.424;2023-05-07T02:41:54;101720.56;;;13.07;89.28
79221;BME280;68648;52.114;5.424;2023-05-07T02:44:21;101713.69;;;13.04;89.13
79221;BME280;68648;52.114;5.424;2023-05-07T02:46:48;101706.84;;;13.02;89.09
79221;BME280;68648;52.114;5.424;2023-05-07T02:49:14;101711.44;;;13.00;89.33
79221;BME280;68648;52.114;5.424;2023-05-07T02:51:41;101702.50;;;13.01;89.38
79221;BME280;68648;52.114;5.424;2023-05-07T02:54:07;101701.66;;;13.00;89.32
79221;BME280;68648;52.114;5.424;2023-05-07T02:56:34;101707.13;;;12.99;89.18
79221;BME280;68648;52.114;5.424;2023-05-07T02:59:00;101708.94;;;12.98;89.56
79221;BME280;68648;52.114;5.424;2023-05-07T03:01:30;101715.09;;;12.99;89.62
79221;BME280;68648;52.114;5.424;2023-05-07T03:03:56;101713.84;;;13.03;89.56
79221;BME280;68648;52.114;5.424;2023-05-07T03:06:23;101714.53;;;13.05;89.42
79221;BME280;68648;52.114;5.424;2023-05-07T03:08:49;101707.41;;;13.05;89.37
79221;BME280;68648;52.114;5.424;2023-05-07T03:11:19;101710.78;;;13.07;89.11
79221;BME280;68648;52.114;5.424;2023-05-07T03:13:46;101707.28;;;13.07;88.97
79221;BME280;68648;52.114;5.424;2023-05-07T03:16:13;101703.19;;;13.03;89.05
79221;BME280;68648;52.114;5.424;2023-05-07T03:18:39;101703.88;;;12.95;88.98
79221;BME280;68648;52.114;5.424;2023-05-07T03:21:06;101704.41;;;12.89;89.10
79221;BME280;68648;52.114;5.424;2023-05-07T03:23:32;101697.53;;;12.86;89.32
79221;BME280;68648;52.114;5.424;2023-05-07T03:25:59;101705.50;;;12.86;89.05
79221;BME280;68648;52.114;5.424;2023-05-07T03:28:26;101707.44;;;12.84;89.13
79221;BME280;68648;52.114;5.424;2023-05-07T03:30:52;101704.09;;;12.82;89.19
79221;BME280;68648;52.114;5.424;2023-05-07T03:33:19;101703.38;;;12.80;89.19
79221;BME280;68648;52.114;5.424;2023-05-07T03:35:45;101713.31;;;12.78;89.11
79221;BME280;68648;52.114;5.424;2023-05-07T03:38:12;101706.56;;;12.74;89.41
79221;BME280;68648;52.114;5.424;2023-05-07T03:40:44;101706.81;;;12.71;89.33
79221;BME280;68648;52.114;5.424;2023-05-07T03:43:10;101703.03;;;12.64;89.43
79221;BME280;68648;52.114;5.424;2023-05-07T03:45:38;101704.97;;;12.62;89.33
79221;BME280;68648;52.114;5.424;2023-05-07T03:48:05;101707.34;;;12.65;89.57
79221;BME280;68648;52.114;5.424;2023-05-07T03:50:32;101713.34;;;12.67;89.48
79221;BME280;68648;52.114;5.424;2023-05-07T03:52:58;101712.66;;;12.65;89.39
79221;BME280;68648;52.114;5.424;2023-05-07T03:55:25;101708.34;;;12.64;89.55
79221;BME280;68648;52.114;5.424;2023-05-07T03:57:51;101711.94;;;12.63;89.37
79221;BME280;68648;52.114;5.424;2023-05-07T04:00:18;101710.97;;;12.64;89.75
79221;BME280;68648;52.114;5.424;2023-05-07T04:02:46;101709.03;;;12.66;89.81
79221;BME280;68648;52.114;5.424;2023-05-07T04:05:14;101707.34;;;12.65;90.11
79221;BME280;68648;52.114;5.424;2023-05-07T04:07:41;101717.41;;;12.61;89.86
79221;BME280;68648;52.114;5.424;2023-05-07T04:10:07;101719.19;;;12.61;89.88
79221;BME280;68648;52.114;5.424;2023-05-07T04:12:35;101716.09;;;12.56;89.53
79221;BME280;68648;52.114;5.424;2023-05-07T04:15:01;101724.31;;;12.53;89.31
79221;BME280;68648;52.114;5.424;2023-05-07T04:17:28;101722.38;;;12.55;89.36
79221;BME280;68648;52.114;5.424;2023-05-07T04:19:54;101724.50;;;12.61;89.06
79221;BME280;68648;52.114;5.424;2023-05-07T04:22:21;101723.97;;;12.67;89.28
79221;BME280;68648;52.114;5.424;2023-05-07T04:24:47;101726.38;;;12.70;89.24
79221;BME280;68648;52.114;5.424;2023-05-07T04:27:13;101731.44;;;12.73;89.42
79221;BME280;68648;52.114;5.424;2023-05-07T04:29:40;101723.34;;;12.75;89.33
79221;BME280;68648;52.114;5.424;2023-05-07T04:32:09;101727.56;;;12.77;89.45
79221;BME280;68648;52.114;5.424;2023-05-07T04:34:36;101729.38;;;12.77;89.50
79221;BME280;68648;52.114;5.424;2023-05-07T04:37:02;101729.38;;;12.77;89.27
79221;BME280;68648;52.114;5.424;2023-05-07T04:39:29;101722.50;;;12.74;89.49
79221;BME280;68648;52.114;5.424;2023-05-07T04:41:55;101733.84;;;12.76;89.63
79221;BME280;68648;52.114;5.424;2023-05-07T04:44:22;101725.88;;;12.76;89.75
79221;BME280;68648;52.114;5.424;2023-05-07T04:46:49;101730.09;;;12.79;89.18
79221;BME280;68648;52.114;5.424;2023-05-07T04:49:15;101727.00;;;12.83;89.27
79221;BME280;68648;52.114;5.424;2023-05-07T04:51:42;101727.59;;;12.87;89.13
79221;BME280;68648;52.114;5.424;2023-05-07T04:54:10;101735.19;;;12.91;89.44
79221;BME280;68648;52.114;5.424;2023-05-07T04:56:36;101734.91;;;12.94;89.23
79221;BME280;68648;52.114;5.424;2023-05-07T04:59:03;101741.50;;;13.00;89.25
79221;BME280;68648;52.114;5.424;2023-05-07T05:01:29;101741.97;;;13.05;89.29
79221;BME280;68648;52.114;5.424;2023-05-07T05:03:56;101746.16;;;13.08;89.00
79221;BME280;68648;52.114;5.424;2023-05-07T05:06:23;101743.38;;;13.09;88.93
79221;BME280;68648;52.114;5.424;2023-05-07T05:08:49;101748.56;;;13.11;89.00
79221;BME280;68648;52.114;5.424;2023-05-07T05:11:16;101743.97;;;13.13;88.83
79221;BME280;68648;52.114;5.424;2023-05-07T05:13:43;101749.03;;;13.16;88.84
79221;BME280;68648;52.114;5.424;2023-05-07T05:16:09;101745.38;;;13.17;88.57
79221;BME280;68648;52.114;5.424;2023-05-07T05:18:36;101747.22;;;13.16;88.60
79221;BME280;68648;52.114;5.424;2023-05-07T05:21:02;101752.53;;;13.16;88.77
79221;BME280;68648;52.114;5.424;2023-05-07T05:23:29;101749.72;;;13.18;88.61
79221;BME280;68648;52.114;5.424;2023-05-07T05:25:58;101746.94;;;13.19;88.90
79221;BME280;68648;52.114;5.424;2023-05-07T05:28:24;101750.31;;;13.21;88.61
79221;BME280;68648;52.114;5.424;2023-05-07T05:30:51;101754.66;;;13.22;88.46
79221;BME280;68648;52.114;5.424;2023-05-07T05:33:18;101755.50;;;13.23;88.25
79221;BME280;68648;52.114;5.424;2023-05-07T05:35:45;101757.19;;;13.24;88.74
79221;BME280;68648;52.114;5.424;2023-05-07T05:38:14;101766.97;;;13.23;88.57
79221;BME280;68648;52.114;5.424;2023-05-07T05:40:41;101764.31;;;13.23;88.29
79221;BME280;68648;52.114;5.424;2023-05-07T05:43:07;101766.84;;;13.25;88.81
79221;BME280;68648;52.114;5.424;2023-05-07T05:45:34;101775.66;;;13.25;88.50
79221;BME280;68648;52.114;5.424;2023-05-07T05:48:03;101783.25;;;13.30;88.43
79221;BME280;68648;52.114;5.424;2023-05-07T05:50:30;101780.44;;;13.31;88.46
79221;BME280;68648;52.114;5.424;2023-05-07T05:52:56;101784.38;;;13.37;88.30
79221;BME280;68648;52.114;5.424;2023-05-07T05:55:25;101786.50;;;13.43;88.45
79221;BME280;68648;52.114;5.424;2023-05-07T05:57:52;101792.13;;;13.50;88.41
79221;BME280;68648;52.114;5.424;2023-05-07T06:00:19;101787.25;;;13.55;87.92
79221;BME280;68648;52.114;5.424;2023-05-07T06:02:51;101785.63;;;13.63;87.61
79221;BME280;68648;52.114;5.424;2023-05-07T06:05:18;101796.69;;;13.69;87.73
79221;BME280;68648;52.114;5.424;2023-05-07T06:07:45;101798.50;;;13.68;87.76
79221;BME280;68648;52.114;5.424;2023-05-07T06:10:11;101801.41;;;13.65;87.72
79221;BME280;68648;52.114;5.424;2023-05-07T06:12:39;101802.97;;;13.68;87.68
79221;BME280;68648;52.114;5.424;2023-05-07T06:15:06;101807.88;;;13.72;87.65
79221;BME280;68648;52.114;5.424;2023-05-07T06:17:33;101798.41;;;13.79;87.40
79221;BME280;68648;52.114;5.424;2023-05-07T06:20:06;101804.72;;;13.88;87.44
79221;BME280;68648;52.114;5.424;2023-05-07T06:22:33;101803.88;;;13.97;87.37
79221;BME280;68648;52.114;5.424;2023-05-07T06:25:00;101803.22;;;14.05;87.46
79221;BME280;68648;52.114;5.424;2023-05-07T06:27:26;101799.97;;;14.01;86.79
79221;BME280;68648;52.114;5.424;2023-05-07T06:29:54;101804.72;;;13.97;87.03
79221;BME280;68648;52.114;5.424;2023-05-07T06:32:21;101806.72;;;13.95;87.01
79221;BME280;68648;52.114;5.424;2023-05-07T06:34:48;101812.44;;;14.00;87.27
79221;BME280;68648;52.114;5.424;2023-05-07T06:37:14;101813.28;;;14.01;87.15
79221;BME280;68648;52.114;5.424;2023-05-07T06:39:41;101802.22;;;13.96;87.33
79221;BME280;68648;52.114;5.424;2023-05-07T06:42:08;101806.00;;;13.93;87.73
79221;BME280;68648;52.114;5.424;2023-05-07T06:44:35;101808.94;;;13.90;87.78
79221;BME280;68648;52.114;5.424;2023-05-07T06:47:01;101812.16;;;13.94;88.13
79221;BME280;68648;52.114;5.424;2023-05-07T06:49:28;101806.84;;;13.94;88.08
79221;BME280;68648;52.114;5.424;2023-05-07T06:51:55;101805.69;;;13.87;88.26
79221;BME280;68648;52.114;5.424;2023-05-07T06:54:22;101800.25;;;13.88;87.99
79221;BME280;68648;52.114;5.424;2023-05-07T06:56:50;101803.59;;;13.90;88.17
79221;BME280;68648;52.114;5.424;2023-05-07T06:59:16;101815.25;;;13.99;88.42
79221;BME280;68648;52.114;5.424;2023-05-07T07:01:43;101810.81;;;14.09;88.64
79221;BME280;68648;52.114;5.424;2023-05-07T07:04:10;101807.44;;;14.17;88.31
79221;BME280;68648;52.114;5.424;2023-05-07T07:06:40;101803.25;;;14.24;87.72
79221;BME280;68648;52.114;5.424;2023-05-07T07:09:07;101806.34;;;14.39;87.79
79221;BME280;68648;52.114;5.424;2023-05-07T07:11:33;101815.50;;;14.55;87.31
79221;BME280;68648;52.114;5.424;2023-05-07T07:14:00;101814.09;;;14.70;87.22
79221;BME280;68648;52.114;5.424;2023-05-07T07:16:27;101804.81;;;14.84;86.52
79221;BME280;68648;52.114;5.424;2023-05-07T07:18:53;101811.13;;;14.93;86.03
79221;BME280;68648;52.114;5.424;2023-05-07T07:21:23;101807.44;;;15.03;85.00
79221;BME280;68648;52.114;5.424;2023-05-07T07:23:49;101813.44;;;15.25;84.60
79221;BME280;68648;52.114;5.424;2023-05-07T07:26:17;101815.34;;;15.42;84.09
79221;BME280;68648;52.114;5.424;2023-05-07T07:28:45;101803.97;;;15.40;82.89
79221;BME280;68648;52.114;5.424;2023-05-07T07:31:12;101807.50;;;15.40;82.83
79221;BME280;68648;52.114;5.424;2023-05-07T07:33:39;101809.31;;;15.30;82.75
79221;BME280;68648;52.114;5.424;2023-05-07T07:36:06;101811.78;;;15.51;82.48
79221;BME280;68648;52.114;5.424;2023-05-07T07:38:34;101813.00;;;15.66;82.16
79221;BME280;68648;52.114;5.424;2023-05-07T07:41:01;101809.97;;;15.89;81.60
79221;BME280;68648;52.114;5.424;2023-05-07T07:43:28;101811.03;;;15.96;81.82
79221;BME280;68648;52.114;5.424;2023-05-07T07:45:55;101816.47;;;16.04;81.44
79221;BME280;68648;52.114;5.424;2023-05-07T07:48:21;101819.38;;;16.10;80.65
79221;BME280;68648;52.114;5.424;2023-05-07T07:50:49;101820.09;;;16.48;79.98
79221;BME280;68648;52.114;5.424;2023-05-07T07:53:16;101825.19;;;16.59;77.93
79221;BME280;68648;52.114;5.424;2023-05-07T07:55:43;101827.28;;;16.65;78.21
79221;BME280;68648;52.114;5.424;2023-05-07T07:58:10;101824.22;;;16.78;78.67
79221;BME280;68648;52.114;5.424;2023-05-07T08:00:37;101835.91;;;16.77;78.63
79221;BME280;68648;52.114;5.424;2023-05-07T08:03:03;101823.63;;;16.84;78.38
79221;BME280;68648;52.114;5.424;2023-05-07T08:05:31;101826.28;;;16.84;77.82
79221;BME280;68648;52.114;5.424;2023-05-07T08:07:58;101824.47;;;16.67;78.79
79221;BME280;68648;52.114;5.424;2023-05-07T08:10:25;101830.03;;;16.56;78.83
79221;BME280;68648;52.114;5.424;2023-05-07T08:12:51;101835.97;;;16.50;79.46
79221;BME280;68648;52.114;5.424;2023-05-07T08:15:18;101838.19;;;16.36;78.71
79221;BME280;68648;52.114;5.424;2023-05-07T08:17:45;101831.16;;;16.35;79.56
79221;BME280;68648;52.114;5.424;2023-05-07T08:20:11;101831.53;;;16.40;78.71
79221;BME280;68648;52.114;5.424;2023-05-07T08:22:38;101834.81;;;16.34;79.54
79221;BME280;68648;52.114;5.424;2023-05-07T08:25:05;101842.59;;;16.28;79.44
79221;BME280;68648;52.114;5.424;2023-05-07T08:27:32;101833.81;;;16.18;79.27
79221;BME280;68648;52.114;5.424;2023-05-07T08:29:59;101838.34;;;16.07;80.27
79221;BME280;68648;52.114;5.424;2023-05-07T08:32:26;101832.13;;;16.17;80.59
79221;BME280;68648;52.114;5.424;2023-05-07T08:34:52;101843.44;;;16.28;80.83
79221;BME280;68648;52.114;5.424;2023-05-07T08:37:19;101837.16;;;16.20;80.13
79221;BME280;68648;52.114;5.424;2023-05-07T08:39:46;101841.53;;;16.21;80.15
79221;BME280;68648;52.114;5.424;2023-05-07T08:42:16;101839.19;;;16.08;79.92
79221;BME280;68648;52.114;5.424;2023-05-07T08:44:45;101838.34;;;16.07;81.04
79221;BME280;68648;52.114;5.424;2023-05-07T08:47:13;101838.34;;;16.07;80.45
79221;BME280;68648;52.114;5.424;2023-05-07T08:49:40;101841.19;;;16.06;80.96
79221;BME280;68648;52.114;5.424;2023-05-07T08:52:07;101844.53;;;16.08;81.33
79221;BME280;68648;52.114;5.424;2023-05-07T08:54:37;101838.47;;;16.16;81.66
79221;BME280;68648;52.114;5.424;2023-05-07T08:57:04;101835.84;;;16.24;81.33
79221;BME280;68648;52.114;5.424;2023-05-07T08:59:31;101840.06;;;16.26;81.27
79221;BME280;68648;52.114;5.424;2023-05-07T09:01:57;101847.88;;;16.37;81.11
79221;BME280;68648;52.114;5.424;2023-05-07T09:04:24;101848.41;;;16.23;80.92
79221;BME280;68648;52.114;5.424;2023-05-07T09:06:51;101850.69;;;16.18;81.46
79221;BME280;68648;52.114;5.424;2023-05-07T09:09:18;101841.28;;;16.14;81.33
79221;BME280;68648;52.114;5.424;2023-05-07T09:11:47;101847.16;;;16.18;81.31
79221;BME280;68648;52.114;5.424;2023-05-07T09:14:14;101839.28;;;16.16;81.34
79221;BME280;68648;52.114;5.424;2023-05-07T09:16:40;101838.69;;;16.04;81.24
79221;BME280;68648;52.114;5.424;2023-05-07T09:19:07;101839.13;;;16.00;81.42
79221;BME280;68648;52.114;5.424;2023-05-07T09:21:35;101840.78;;;16.01;81.63
79221;BME280;68648;52.114;5.424;2023-05-07T09:24:01;101843.06;;;15.96;81.69
79221;BME280;68648;52.114;5.424;2023-05-07T09:26:28;101840.66;;;16.02;81.95
79221;BME280;68648;52.114;5.424;2023-05-07T09:28:55;101849.56;;;16.11;81.78
79221;BME280;68648;52.114;5.424;2023-05-07T09:31:21;101845.78;;;16.14;81.58
79221;BME280;68648;52.114;5.424;2023-05-07T09:33:50;101848.75;;;16.28;81.46
79221;BME280;68648;52.114;5.424;2023-05-07T09:36:19;101847.09;;;16.45;81.74
79221;BME280;68648;52.114;5.424;2023-05-07T09:38:46;101846.56;;;16.41;81.99
79221;BME280;68648;52.114;5.424;2023-05-07T09:41:13;101846.13;;;16.46;82.07
79221;BME280;68648;52.114;5.424;2023-05-07T09:43:40;101848.19;;;16.52;81.42
79221;BME280;68648;52.114;5.424;2023-05-07T09:46:09;101848.09;;;16.44;80.94
79221;BME280;68648;52.114;5.424;2023-05-07T09:48:39;101850.44;;;16.29;80.80
79221;BME280;68648;52.114;5.424;2023-05-07T09:51:30;101847.09;;;16.27;80.48
79221;BME280;68648;52.114;5.424;2023-05-07T09:54:01;101851.16;;;16.31;80.88
79221;BME280;68648;52.114;5.424;2023-05-07T09:56:30;101851.75;;;16.43;80.56
79221;BME280;68648;52.114;5.424;2023-05-07T09:59:00;101849.72;;;16.72;80.43
79221;BME280;68648;52.114;5.424;2023-05-07T10:01:27;101856.97;;;16.98;80.00
79221;BME280;68648;52.114;5.424;2023-05-07T10:03:54;101845.72;;;17.12;79.14
79221;BME280;68648;52.114;5.424;2023-05-07T10:06:23;101854.00;;;17.27;78.74
79221;BME280;68648;52.114;5.424;2023-05-07T10:08:51;101860.06;;;17.11;77.41
79221;BME280;68648;52.114;5.424;2023-05-07T10:11:19;101858.31;;;17.20;79.30
79221;BME280;68648;52.114;5.424;2023-05-07T10:13:46;101856.38;;;17.30;79.07
79221;BME280;68648;52.114;5.424;2023-05-07T10:16:12;101860.81;;;17.47;77.54
79221;BME280;68648;52.114;5.424;2023-05-07T10:18:40;101863.00;;;17.69;76.84
79221;BME280;68648;52.114;5.424;2023-05-07T10:21:12;101864.94;;;17.93;76.74
79221;BME280;68648;52.114;5.424;2023-05-07T10:23:41;101865.91;;;17.84;76.30
79221;BME280;68648;52.114;5.424;2023-05-07T10:26:11;101866.28;;;17.97;76.98
79221;BME280;68648;52.114;5.424;2023-05-07T10:28:41;101863.94;;;17.94;74.90
79221;BME280;68648;52.114;5.424;2023-05-07T10:33:59;101862.19;;;18.35;74.77
79221;BME280;68648;52.114;5.424;2023-05-07T10:36:27;101861.13;;;18.62;74.04
79221;BME280;68648;52.114;5.424;2023-05-07T10:38:54;101863.47;;;19.06;72.82
79221;BME280;68648;52.114;5.424;2023-05-07T10:41:21;101857.75;;;19.17;72.74
79221;BME280;68648;52.114;5.424;2023-05-07T10:43:48;101864.91;;;19.49;70.60
79221;BME280;68648;52.114;5.424;2023-05-07T10:46:17;101863.81;;;19.82;68.79
79221;BME280;68648;52.114;5.424;2023-05-07T10:51:35;101861.81;;;19.84;69.09
79221;BME280;68648;52.114;5.424;2023-05-07T10:56:41;101861.66;;;20.17;65.70
79221;BME280;68648;52.114;5.424;2023-05-07T11:02:06;101861.00;;;20.46;68.06
79221;BME280;68648;52.114;5.424;2023-05-07T11:04:34;101857.44;;;20.53;67.61
79221;BME280;68648;52.114;5.424;2023-05-07T11:15:09;101861.09;;;20.60;66.60
79221;BME280;68648;52.114;5.424;2023-05-07T11:17:56;101864.38;;;20.71;66.30
79221;BME280;68648;52.114;5.424;2023-05-07T11:26:06;101864.38;;;21.31;64.65
79221;BME280;68648;52.114;5.424;2023-05-07T11:28:40;101869.88;;;21.38;64.41
79221;BME280;68648;52.114;5.424;2023-05-07T11:31:08;101872.47;;;21.60;63.77
79221;BME280;68648;52.114;5.424;2023-05-07T11:33:35;101866.81;;;21.55;62.85
79221;BME280;68648;52.114;5.424;2023-05-07T11:36:03;101867.84;;;21.84;62.42
79221;BME280;68648;52.114;5.424;2023-05-07T11:38:34;101865.94;;;22.14;62.33
79221;BME280;68648;52.114;5.424;2023-05-07T11:41:02;101866.91;;;21.62;61.87
79221;BME280;68648;52.114;5.424;2023-05-07T11:43:31;101858.75;;;21.55;62.07
79221;BME280;68648;52.114;5.424;2023-05-07T11:46:11;101865.69;;;21.79;64.36
79221;BME280;68648;52.114;5.424;2023-05-07T11:48:41;101864.78;;;21.87;62.56
79221;BME280;68648;52.114;5.424;2023-05-07T11:51:09;101866.69;;;21.93;62.12
79221;BME280;68648;52.114;5.424;2023-05-07T11:53:39;101867.09;;;22.05;63.06
79221;BME280;68648;52.114;5.424;2023-05-07T11:56:11;101866.31;;;22.11;61.15
79221;BME280;68648;52.114;5.424;2023-05-07T11:58:38;101867.34;;;21.80;62.41
79221;BME280;68648;52.114;5.424;2023-05-07T12:01:07;101868.78;;;21.91;63.12
79221;BME280;68648;52.114;5.424;2023-05-07T12:03:36;101866.69;;;21.93;62.74
79221;BME280;68648;52.114;5.424;2023-05-07T12:06:06;101865.41;;;21.59;63.37
79221;BME280;68648;52.114;5.424;2023-05-07T12:08:33;101860.31;;;21.64;62.84
79221;BME280;68648;52.114;5.424;2023-05-07T12:11:02;101864.84;;;22.23;62.42
79221;BME280;68648;52.114;5.424;2023-05-07T12:13:28;101865.47;;;22.82;62.25
79221;BME280;68648;52.114;5.424;2023-05-07T12:15:55;101871.16;;;23.15;57.84
79221;BME280;68648;52.114;5.424;2023-05-07T12:18:23;101863.91;;;23.22;57.60
79221;BME280;68648;52.114;5.424;2023-05-07T12:20:50;101868.34;;;23.58;57.35
79221;BME280;68648;52.114;5.424;2023-05-07T12:23:17;101866.97;;;23.41;55.46
79221;BME280;68648;52.114;5.424;2023-05-07T12:25:44;101863.13;;;23.56;58.55
79221;BME280;68648;52.114;5.424;2023-05-07T12:28:17;101866.19;;;23.47;57.35
79221;BME280;68648;52.114;5.424;2023-05-07T12:30:46;101872.25;;;23.83;55.33
79221;BME280;68648;52.114;5.424;2023-05-07T12:33:17;101869.66;;;23.41;54.53
79221;BME280;68648;52.114;5.424;2023-05-07T12:35:44;101870.94;;;23.45;57.17
79221;BME280;68648;52.114;5.424;2023-05-07T12:38:13;101870.78;;;23.81;55.24
79221;BME280;68648;52.114;5.424;2023-05-07T12:40:46;101860.94;;;23.73;53.19
79221;BME280;68648;52.114;5.424;2023-05-07T12:43:24;101867.00;;;23.47;54.80
79221;BME280;68648;52.114;5.424;2023-05-07T12:45:54;101864.97;;;23.84;53.21
79221;BME280;68648;52.114;5.424;2023-05-07T12:48:22;101871.41;;;23.83;52.36
79221;BME280;68648;52.114;5.424;2023-05-07T12:50:50;101868.03;;;23.46;55.24
79221;BME280;68648;52.114;5.424;2023-05-07T12:53:16;101862.50;;;23.54;54.60
79221;BME280;68648;52.114;5.424;2023-05-07T12:55:45;101869.00;;;24.01;50.34
79221;BME280;68648;52.114;5.424;2023-05-07T12:58:32;101876.22;;;24.41;50.42
79221;BME280;68648;52.114;5.424;2023-05-07T13:01:01;101867.16;;;23.67;51.25
79221;BME280;68648;52.114;5.424;2023-05-07T13:03:37;101872.25;;;23.83;53.12
79221;BME280;68648;52.114;5.424;2023-05-07T13:06:08;101872.63;;;23.80;49.91
79221;BME280;68648;52.114;5.424;2023-05-07T13:08:41;101876.06;;;23.61;49.11
79221;BME280;68648;52.114;5.424;2023-05-07T13:11:12;101875.34;;;23.87;51.14
79221;BME280;68648;52.114;5.424;2023-05-07T13:13:41;101877.72;;;23.96;49.67
79221;BME280;68648;52.114;5.424;2023-05-07T13:16:10;101880.16;;;24.32;52.47
79221;BME280;68648;52.114;5.424;2023-05-07T13:18:38;101871.03;;;24.40;51.18